Time;durP1;ratioP1;P1;durP2;ratioP2;P2;SDS_P1;SDS_P2;PMS_P1;PMS_P2;Temp;Humidity;BMP_temperature;BMP_pressure;BME280_temperature;BME280_humidity;BME280_pressure;Samples;Min_cycle;Max_cycle;Signal;HPM_P1;HPM_P2
2023/02/11 00:00:34;;;;;;;32.67;14.63;;;2.90;66.50;;;;;;2348967;53;20940;-86
2023/02/11 00:03:00;;;;;;;26.12;12.43;;;2.90;66.40;;;;;;2593533;52;20997;-86
2023/02/11 00:05:26;;;;;;;28.50;12.68;;;2.90;66.50;;;;;;2595141;52;20933;-86
2023/02/11 00:07:53;;;;;;;27.17;11.77;;;2.80;66.40;;;;;;2594713;52;20930;-86
2023/02/11 00:10:19;;;;;;;24.98;11.77;;;2.60;66.20;;;;;;2594613;52;20985;-86
2023/02/11 00:12:45;;;;;;;29.67;12.23;;;2.80;66.50;;;;;;2594792;52;20969;-86
2023/02/11 00:15:12;;;;;;;23.55;10.80;;;2.80;66.40;;;;;;2594300;52;20968;-84
2023/02/11 00:17:38;;;;;;;27.98;11.80;;;2.70;66.40;;;;;;2596153;52;21966;-85
2023/02/11 00:20:05;;;;;;;32.53;14.87;;;2.70;66.40;;;;;;2595640;52;20882;-85
2023/02/11 00:22:33;;;;;;;32.08;13.35;;;2.70;66.50;;;;;;2348936;53;21299;-86
2023/02/11 00:25:00;;;;;;;28.12;13.05;;;2.70;66.40;;;;;;2595280;52;20944;-85
2023/02/11 00:27:26;;;;;;;26.77;12.48;;;2.60;66.30;;;;;;2596688;52;20905;-86
2023/02/11 00:29:53;;;;;;;31.08;13.43;;;2.60;66.30;;;;;;2595933;52;20910;-86
2023/02/11 00:32:19;;;;;;;27.17;13.20;;;2.60;66.30;;;;;;2349531;53;20921;-85
2023/02/11 00:34:46;;;;;;;21.58;10.25;;;2.50;66.30;;;;;;2595657;52;20925;-85
2023/02/11 00:37:12;;;;;;;27.92;12.32;;;2.50;66.40;;;;;;2595436;52;20969;-85
2023/02/11 00:39:38;;;;;;;26.50;11.95;;;2.50;66.40;;;;;;2596116;52;20952;-84
2023/02/11 00:42:05;;;;;;;26.17;12.43;;;2.50;66.50;;;;;;2595268;52;20925;-86
2023/02/11 00:44:31;;;;;;;25.05;12.48;;;2.50;66.60;;;;;;2595648;52;21914;-85
2023/02/11 00:46:58;;;;;;;29.10;12.82;;;2.40;66.50;;;;;;2595405;52;20985;-85
2023/02/11 00:49:24;;;;;;;28.42;12.23;;;2.40;66.60;;;;;;2595365;52;20989;-85
2023/02/11 00:51:50;;;;;;;22.30;10.68;;;2.40;66.60;;;;;;2595076;52;20898;-85
2023/02/11 00:54:17;;;;;;;19.62;9.45;;;2.40;66.80;;;;;;2595139;52;20905;-85
2023/02/11 00:56:43;;;;;;;18.42;8.48;;;2.40;66.80;;;;;;2595249;52;20921;-85
2023/02/11 00:59:09;;;;;;;19.42;9.25;;;2.40;66.80;;;;;;2595186;52;20949;-86
2023/02/11 01:01:36;;;;;;;17.58;8.43;;;2.40;66.90;;;;;;2595274;52;20967;-85
2023/02/11 01:04:02;;;;;;;20.85;10.07;;;2.40;66.90;;;;;;2595239;52;21001;-85
2023/02/11 01:06:28;;;;;;;21.58;9.63;;;2.30;66.80;;;;;;2588136;52;20981;-84
2023/02/11 01:08:55;;;;;;;18.58;8.65;;;2.30;66.90;;;;;;2346980;53;20913;-85
2023/02/11 01:11:21;;;;;;;22.40;10.57;;;2.40;66.90;;;;;;2594685;52;20944;-86
2023/02/11 01:13:48;;;;;;;22.00;10.25;;;2.30;66.80;;;;;;2594843;52;20933;-85
2023/02/11 01:16:14;;;;;;;19.85;8.98;;;2.30;66.80;;;;;;2593787;52;21187;-84
2023/02/11 01:18:43;;;;;;;23.48;10.27;;;2.30;66.70;;;;;;2594393;52;20957;-85
2023/02/11 01:21:09;;;;;;;22.55;10.32;;;2.30;66.70;;;;;;2594433;52;20956;-86
2023/02/11 01:23:36;;;;;;;23.15;10.57;;;2.30;66.70;;;;;;2595316;52;20985;-85
2023/02/11 01:26:02;;;;;;;24.30;11.65;;;2.20;66.60;;;;;;2347964;53;20910;-84
2023/02/11 01:28:29;;;;;;;18.33;9.55;;;2.20;66.70;;;;;;2349204;53;20958;-85
2023/02/11 01:30:55;;;;;;;19.67;9.52;;;2.20;66.70;;;;;;2594717;52;21405;-85
2023/02/11 01:33:22;;;;;;;15.48;7.97;;;2.20;66.70;;;;;;2348681;53;20976;-85
2023/02/11 01:35:48;;;;;;;18.45;8.68;;;2.20;66.60;;;;;;2594417;52;21231;-85
2023/02/11 01:38:20;;;;;;;20.05;9.45;;;2.20;66.70;;;;;;2348501;53;20945;-85
2023/02/11 01:41:09;;;;;;;25.00;11.70;;;2.10;66.60;;;;;;2594674;52;21052;-85
2023/02/11 01:43:38;;;;;;;20.67;10.02;;;2.10;66.50;;;;;;2595556;52;21041;-86
2023/02/11 01:46:33;;;;;;;21.75;10.20;;;2.10;66.70;;;;;;2348667;53;21027;-85
2023/02/11 01:49:15;;;;;;;19.17;9.07;;;2.10;66.60;;;;;;2594387;52;20972;-84
2023/02/11 01:51:47;;;;;;;20.23;9.52;;;2.10;66.70;;;;;;2347827;53;20925;-84
2023/02/11 02:00:20;;;;;;;17.33;8.45;;;2.00;66.50;;;;;;2560057;53;21429;-85
2023/02/11 02:03:14;;;;;;;21.98;10.07;;;2.00;66.40;;;;;;2350623;53;20933;-85
2023/02/11 02:05:59;;;;;;;21.62;9.23;;;2.00;66.40;;;;;;2593372;52;20972;-84
2023/02/11 02:12:05;;;;;;;20.08;9.05;;;1.90;66.40;;;;;;2550149;52;20941;-84
2023/02/11 02:14:31;;;;;;;19.33;8.80;;;1.90;66.50;;;;;;2587789;52;21800;-85
2023/02/11 02:16:57;;;;;;;23.35;9.60;;;1.90;66.70;;;;;;2591270;52;20973;-84
2023/02/11 02:22:52;;;;;;;21.33;9.93;;;1.90;66.70;;;;;;2592984;52;20957;-84
2023/02/11 02:33:29;;;;;;;21.62;9.68;;;1.70;66.40;;;;;;2592102;52;21077;-83
2023/02/11 02:39:07;;;;;;;15.40;6.70;;;1.90;66.30;;;;;;2593246;52;20905;-84
2023/02/11 02:41:33;;;;;;;18.52;7.55;;;1.90;66.50;;;;;;2593703;52;21045;-85
2023/02/11 02:44:00;;;;;;;22.73;9.27;;;1.90;67.30;;;;;;2593174;52;20921;-85
2023/02/11 02:46:28;;;;;;;26.55;11.27;;;1.90;67.50;;;;;;2348329;53;20922;-85
2023/02/11 02:48:55;;;;;;;23.30;10.35;;;1.90;67.70;;;;;;2593477;52;20894;-84
2023/02/11 02:51:46;;;;;;;19.65;9.07;;;2.00;67.80;;;;;;2593543;52;21000;-85
2023/02/11 03:01:49;;;;;;;23.52;10.85;;;1.90;67.70;;;;;;2348182;53;21291;-85
2023/02/11 03:05:05;;;;;;;20.58;8.80;;;2.00;66.80;;;;;;2350826;53;20993;-86
2023/02/11 03:07:53;;;;;;;22.60;9.05;;;2.00;67.10;;;;;;2595023;52;21392;-84
2023/02/11 03:10:26;;;;;;;24.63;10.77;;;2.00;67.40;;;;;;2593753;52;20976;-85
2023/02/11 03:12:53;;;;;;;21.77;9.77;;;2.00;67.50;;;;;;2589067;52;21016;-85
2023/02/11 03:15:19;;;;;;;23.70;10.50;;;2.00;67.60;;;;;;2347505;53;20921;-85
2023/02/11 03:17:47;;;;;;;24.65;11.73;;;2.00;67.50;;;;;;2594213;52;20973;-86
2023/02/11 03:20:15;;;;;;;24.00;10.50;;;2.00;67.60;;;;;;2348273;53;20961;-85
2023/02/11 03:22:54;;;;;;;20.23;9.48;;;2.00;67.70;;;;;;2593950;52;20976;-84
2023/02/11 03:25:20;;;;;;;19.83;9.52;;;2.00;67.50;;;;;;2593600;52;21394;-85
2023/02/11 03:27:53;;;;;;;22.95;11.32;;;2.00;67.50;;;;;;2594139;52;21426;-86
2023/02/11 03:30:26;;;;;;;25.70;12.13;;;2.00;67.40;;;;;;2593435;52;20977;-85
2023/02/11 03:32:56;;;;;;;30.12;13.18;;;2.00;67.30;;;;;;2592633;52;20913;-84
2023/02/11 03:35:37;;;;;;;23.75;11.85;;;2.00;67.40;;;;;;2348417;53;20905;-85
2023/02/11 03:38:19;;;;;;;25.98;11.75;;;2.00;68.10;;;;;;2588850;52;20932;-85
2023/02/11 03:40:45;;;;;;;26.25;12.30;;;2.00;67.20;;;;;;2594655;52;20926;-85
2023/02/11 03:43:21;;;;;;;32.35;14.20;;;2.00;67.20;;;;;;2592276;52;20975;-86
2023/02/11 03:45:48;;;;;;;27.95;11.85;;;2.00;67.30;;;;;;2591502;52;20922;-84
2023/02/11 03:48:18;;;;;;;29.30;13.50;;;2.00;67.50;;;;;;2594491;52;21319;-84
2023/02/11 03:50:45;;;;;;;19.35;9.75;;;2.00;67.50;;;;;;2594940;52;21286;-85
2023/02/11 03:53:11;;;;;;;23.52;10.77;;;2.00;67.50;;;;;;2595172;52;20929;-85
2023/02/11 03:55:38;;;;;;;23.45;11.30;;;2.00;67.50;;;;;;2595807;52;21285;-85
2023/02/11 03:58:05;;;;;;;26.95;12.93;;;2.00;67.50;;;;;;2594749;52;20885;-85
2023/02/11 04:00:33;;;;;;;24.42;11.30;;;2.10;67.50;;;;;;2595480;52;21313;-85
2023/02/11 04:02:59;;;;;;;20.98;9.43;;;2.00;67.40;;;;;;2595790;52;21867;-85
2023/02/11 04:05:26;;;;;;;23.60;10.45;;;2.10;67.40;;;;;;2349482;53;20906;-86
2023/02/11 04:07:52;;;;;;;25.60;11.38;;;2.00;67.20;;;;;;2596496;52;20917;-85
2023/02/11 04:10:19;;;;;;;22.85;10.80;;;2.00;67.20;;;;;;2597081;52;20985;-86
2023/02/11 04:12:45;;;;;;;25.12;11.77;;;2.00;67.20;;;;;;2597582;52;20889;-85
2023/02/11 04:15:11;;;;;;;27.62;12.98;;;2.00;67.10;;;;;;2597902;52;20842;-84
2023/02/11 04:17:37;;;;;;;20.70;10.43;;;2.00;67.10;;;;;;2350696;53;20976;-85
2023/02/11 04:20:04;;;;;;;19.77;9.50;;;2.00;67.20;;;;;;2594720;52;21020;-85
2023/02/11 04:22:31;;;;;;;24.50;11.52;;;2.00;67.20;;;;;;2595218;52;20977;-86
2023/02/11 04:24:57;;;;;;;21.20;10.00;;;2.00;67.10;;;;;;2595057;52;21092;-86
2023/02/11 04:27:23;;;;;;;29.87;13.38;;;2.00;67.20;;;;;;2594602;52;20973;-84
2023/02/11 04:29:50;;;;;;;29.02;13.73;;;2.00;67.10;;;;;;2349072;53;20925;-84
2023/02/11 04:32:16;;;;;;;24.90;12.50;;;2.00;67.20;;;;;;2594680;52;21572;-84
2023/02/11 04:34:42;;;;;;;25.85;11.45;;;2.00;67.30;;;;;;2595027;52;21060;-85
2023/02/11 04:37:09;;;;;;;21.58;10.80;;;2.00;67.20;;;;;;2590645;52;20969;-84
2023/02/11 04:39:35;;;;;;;29.45;13.05;;;2.00;67.20;;;;;;2592062;52;21805;-86
2023/02/11 04:42:01;;;;;;;26.65;13.18;;;2.00;67.20;;;;;;2593970;52;20901;-84
2023/02/11 04:44:28;;;;;;;26.50;12.80;;;2.00;67.20;;;;;;2596210;52;21260;-85
2023/02/11 04:46:54;;;;;;;27.92;13.40;;;2.00;67.40;;;;;;2349535;53;20905;-85
2023/02/11 04:49:20;;;;;;;25.45;11.75;;;2.00;67.40;;;;;;2595785;52;21012;-85
2023/02/11 04:51:47;;;;;;;27.52;12.52;;;1.90;67.30;;;;;;2595876;52;20960;-86
2023/02/11 04:54:15;;;;;;;25.92;11.85;;;1.90;67.30;;;;;;2595648;52;21457;-85
2023/02/11 04:56:41;;;;;;;28.62;12.93;;;1.90;67.30;;;;;;2595899;52;20897;-86
2023/02/11 04:59:07;;;;;;;23.85;12.05;;;1.90;67.30;;;;;;2349019;53;20983;-86
2023/02/11 05:01:34;;;;;;;29.70;13.60;;;1.90;67.40;;;;;;2595776;52;21746;-85
2023/02/11 05:04:00;;;;;;;24.15;12.75;;;2.00;67.50;;;;;;2593906;52;20993;-85
2023/02/11 05:06:27;;;;;;;24.65;11.45;;;2.00;67.60;;;;;;2590471;52;20949;-84
2023/02/11 05:08:53;;;;;;;25.77;12.52;;;2.00;67.80;;;;;;2594936;52;20905;-86
2023/02/11 05:11:21;;;;;;;27.73;12.45;;;2.00;67.80;;;;;;2594460;52;20933;-85
2023/02/11 05:13:47;;;;;;;28.12;13.23;;;2.00;68.10;;;;;;2594441;52;20934;-85
2023/02/11 05:16:14;;;;;;;23.05;11.20;;;2.00;68.10;;;;;;2594068;52;21004;-84
2023/02/11 05:18:41;;;;;;;24.02;12.02;;;2.10;68.30;;;;;;2594630;52;20952;-83
2023/02/11 05:21:08;;;;;;;23.85;10.55;;;2.10;68.30;;;;;;2594136;52;20957;-85
2023/02/11 05:23:35;;;;;;;26.10;12.20;;;2.10;68.40;;;;;;2594722;52;20940;-85
2023/02/11 05:26:01;;;;;;;24.17;11.95;;;2.20;68.50;;;;;;2593357;52;21036;-84
2023/02/11 05:28:28;;;;;;;22.90;10.95;;;2.20;68.50;;;;;;2594201;52;21252;-84
2023/02/11 05:30:54;;;;;;;30.83;14.73;;;2.20;68.50;;;;;;2594519;52;20937;-87
2023/02/11 05:33:20;;;;;;;38.13;17.60;;;2.30;68.50;;;;;;2594566;52;21016;-85
2023/02/11 05:35:47;;;;;;;29.52;14.35;;;2.30;68.50;;;;;;2594474;52;20878;-84
2023/02/11 05:38:13;;;;;;;28.67;14.23;;;2.40;68.60;;;;;;2593809;52;20917;-85
2023/02/11 05:40:39;;;;;;;24.15;11.98;;;2.40;68.60;;;;;;2349291;53;20939;-84
2023/02/11 05:43:06;;;;;;;26.92;13.00;;;2.40;68.60;;;;;;2594366;52;21356;-85
2023/02/11 05:45:32;;;;;;;21.67;10.80;;;2.40;68.50;;;;;;2595100;52;21931;-86
2023/02/11 05:47:59;;;;;;;26.70;12.02;;;2.50;68.50;;;;;;2595063;52;20929;-85
2023/02/11 05:50:25;;;;;;;25.58;11.90;;;2.50;68.30;;;;;;2595196;52;20937;-84
2023/02/11 05:52:51;;;;;;;24.77;11.18;;;2.50;68.30;;;;;;2594749;52;20928;-86
2023/02/11 05:55:18;;;;;;;19.90;10.50;;;2.50;68.20;;;;;;2594076;52;20936;-85
2023/02/11 05:57:44;;;;;;;27.20;11.88;;;2.50;68.20;;;;;;2595386;52;20988;-85
2023/02/11 06:00:11;;;;;;;27.85;13.82;;;2.50;68.10;;;;;;2594489;52;20889;-85
2023/02/11 06:02:37;;;;;;;24.05;12.20;;;2.60;68.20;;;;;;2595656;52;20953;-85
2023/02/11 06:05:04;;;;;;;21.42;11.07;;;2.60;68.10;;;;;;2594576;52;20969;-85
2023/02/11 06:07:30;;;;;;;27.85;12.93;;;2.60;68.00;;;;;;2595475;52;20946;-86
2023/02/11 06:09:59;;;;;;;26.05;12.50;;;2.60;67.90;;;;;;2594829;52;20945;-85
2023/02/11 06:12:25;;;;;;;20.73;11.55;;;2.60;67.80;;;;;;2594936;52;20945;-84
2023/02/11 06:14:52;;;;;;;27.08;12.43;;;2.60;67.80;;;;;;2595105;52;21564;-85
2023/02/11 06:17:18;;;;;;;19.55;10.05;;;2.60;67.70;;;;;;2594886;52;20932;-85
2023/02/11 06:19:45;;;;;;;21.92;11.15;;;2.60;67.60;;;;;;2594744;52;21785;-84
2023/02/11 06:22:11;;;;;;;27.52;13.45;;;2.60;67.50;;;;;;2594340;52;20933;-84
2023/02/11 06:24:37;;;;;;;32.17;14.87;;;2.60;67.40;;;;;;2595164;52;21508;-85
2023/02/11 06:27:25;;;;;;;27.62;13.20;;;2.60;67.40;;;;;;2326452;53;20929;-86
2023/02/11 06:29:52;;;;;;;27.20;12.45;;;2.50;67.30;;;;;;2595482;52;20988;-86
2023/02/11 06:32:18;;;;;;;29.70;13.38;;;2.50;67.40;;;;;;2594254;52;21032;-85
2023/02/11 06:35:05;;;;;;;29.17;14.82;;;2.50;67.40;;;;;;2594510;52;20993;-86
2023/02/11 06:37:33;;;;;;;29.83;14.50;;;2.50;67.50;;;;;;2348878;53;20937;-85
2023/02/11 06:39:59;;;;;;;30.95;14.48;;;2.50;67.50;;;;;;2593156;52;20973;-85
2023/02/11 06:42:26;;;;;;;26.40;12.82;;;2.50;67.50;;;;;;2348174;53;20985;-85
2023/02/11 06:44:52;;;;;;;23.00;12.13;;;2.50;67.60;;;;;;2348243;53;20928;-83
2023/02/11 06:47:19;;;;;;;22.52;11.52;;;2.50;67.60;;;;;;2593222;52;21068;-84
2023/02/11 06:49:45;;;;;;;22.65;11.65;;;2.50;67.50;;;;;;2348461;53;20933;-84
2023/02/11 06:52:11;;;;;;;22.25;10.98;;;2.50;67.50;;;;;;2591984;52;21063;-83
2023/02/11 06:54:37;;;;;;;24.63;11.35;;;2.50;67.60;;;;;;2348035;53;20913;-85
2023/02/11 06:57:04;;;;;;;27.08;12.27;;;2.50;67.70;;;;;;2590837;52;21033;-85
2023/02/11 06:59:30;;;;;;;27.35;13.30;;;2.50;67.70;;;;;;2588079;52;21020;-84
2023/02/11 07:01:56;;;;;;;22.27;11.45;;;2.50;67.80;;;;;;2593251;52;21042;-85
2023/02/11 07:04:23;;;;;;;24.33;12.57;;;2.50;67.90;;;;;;2347482;53;21185;-85
2023/02/11 07:06:50;;;;;;;26.10;12.13;;;2.50;67.90;;;;;;2594215;52;20992;-85
2023/02/11 07:09:16;;;;;;;21.23;11.23;;;2.60;68.20;;;;;;2593291;52;20993;-85
2023/02/11 07:11:42;;;;;;;25.40;12.77;;;2.60;68.30;;;;;;2594239;52;21700;-83
2023/02/11 07:14:09;;;;;;;22.98;11.23;;;2.60;68.30;;;;;;2594107;52;21060;-85
2023/02/11 07:16:35;;;;;;;27.48;13.20;;;2.60;68.40;;;;;;2591944;52;21910;-85
2023/02/11 07:19:02;;;;;;;31.30;15.05;;;2.60;68.40;;;;;;2589820;52;21020;-83
2023/02/11 07:21:28;;;;;;;32.25;17.52;;;2.70;68.60;;;;;;2594906;52;20957;-85
2023/02/11 07:23:55;;;;;;;24.85;13.68;;;2.70;68.70;;;;;;2347978;53;21027;-85
2023/02/11 07:26:22;;;;;;;27.13;14.48;;;2.70;68.70;;;;;;2594264;52;20973;-86
2023/02/11 07:28:49;;;;;;;30.77;15.43;;;2.80;68.90;;;;;;2594134;52;21036;-85
2023/02/11 07:31:23;;;;;;;29.58;14.95;;;2.80;68.90;;;;;;2347286;53;21069;-85
2023/02/11 07:33:51;;;;;;;26.42;13.62;;;2.80;68.90;;;;;;2347566;53;20988;-84
2023/02/11 07:36:17;;;;;;;25.65;12.68;;;2.90;69.00;;;;;;2593918;52;21008;-84
2023/02/11 07:38:43;;;;;;;26.42;12.98;;;2.90;69.00;;;;;;2594074;52;22023;-86
2023/02/11 07:41:14;;;;;;;21.52;10.88;;;3.00;69.00;;;;;;2593938;52;21036;-84
2023/02/11 07:43:41;;;;;;;21.92;12.23;;;3.00;69.00;;;;;;2594588;52;20968;-85
2023/02/11 07:46:09;;;;;;;23.92;11.90;;;3.10;69.10;;;;;;2594549;52;21799;-85
2023/02/11 07:48:36;;;;;;;23.10;11.45;;;3.10;69.00;;;;;;2595669;52;20941;-85
2023/02/11 07:51:16;;;;;;;24.50;12.75;;;3.10;68.90;;;;;;2595572;52;20878;-84
2023/02/11 07:53:44;;;;;;;24.67;12.18;;;3.20;69.00;;;;;;2349583;53;20977;-85
2023/02/11 07:56:10;;;;;;;25.62;12.57;;;3.20;69.00;;;;;;2595418;52;20968;-84
2023/02/11 07:58:36;;;;;;;27.13;14.05;;;3.20;69.00;;;;;;2595639;52;20914;-84
2023/02/11 08:01:04;;;;;;;26.67;14.15;;;3.20;68.90;;;;;;2595335;52;21000;-84
2023/02/11 08:03:30;;;;;;;30.83;16.75;;;3.20;69.20;;;;;;2349556;53;20953;-85
2023/02/11 08:05:57;;;;;;;27.73;14.05;;;3.30;69.00;;;;;;2595445;52;20921;-84
2023/02/11 08:08:26;;;;;;;23.48;12.13;;;3.30;69.10;;;;;;2594836;52;20885;-86
2023/02/11 08:10:53;;;;;;;25.62;13.48;;;3.30;68.90;;;;;;2595033;52;20921;-84
2023/02/11 08:13:19;;;;;;;24.05;12.23;;;3.40;69.00;;;;;;2589150;52;20929;-85
2023/02/11 08:15:45;;;;;;;26.85;13.35;;;3.40;68.90;;;;;;2582466;52;20964;-84
2023/02/11 08:18:12;;;;;;;23.10;12.75;;;3.40;68.90;;;;;;2581922;52;20940;-86
2023/02/11 08:20:38;;;;;;;23.60;11.73;;;3.50;68.90;;;;;;2582422;52;20916;-84
2023/02/11 08:23:06;;;;;;;31.48;15.15;;;3.50;68.90;;;;;;2581656;52;20885;-85
2023/02/11 08:25:32;;;;;;;37.72;17.85;;;3.50;68.90;;;;;;2582699;52;20949;-84
2023/02/11 08:27:59;;;;;;;29.95;14.90;;;3.60;68.90;;;;;;2582466;52;20980;-85
2023/02/11 08:30:25;;;;;;;28.58;15.68;;;3.60;68.80;;;;;;2581911;52;20894;-85
2023/02/11 08:32:53;;;;;;;27.25;14.15;;;3.60;68.80;;;;;;2582306;52;21003;-85
2023/02/11 08:35:19;;;;;;;26.12;13.88;;;3.70;69.00;;;;;;2580938;52;20952;-84
2023/02/11 08:37:45;;;;;;;22.15;12.15;;;3.70;68.90;;;;;;2572652;52;21339;-85
2023/02/11 08:40:12;;;;;;;25.08;13.55;;;3.70;68.90;;;;;;2573476;52;21418;-86
2023/02/11 08:42:38;;;;;;;27.35;13.95;;;3.70;68.80;;;;;;2576362;52;20917;-87
2023/02/11 08:45:06;;;;;;;24.17;12.55;;;3.70;68.90;;;;;;2573481;52;20982;-84
2023/02/11 08:47:32;;;;;;;28.83;15.13;;;3.80;68.90;;;;;;2575712;52;21090;-85
2023/02/11 08:49:58;;;;;;;23.85;13.35;;;3.80;68.90;;;;;;2569123;52;21449;-84
2023/02/11 08:52:25;;;;;;;25.48;13.62;;;3.80;68.90;;;;;;2572807;52;20917;-84
2023/02/11 08:54:51;;;;;;;23.87;13.27;;;3.80;68.80;;;;;;2332937;53;21332;-84
2023/02/11 08:57:22;;;;;;;27.60;15.20;;;3.80;68.50;;;;;;2576872;52;20905;-86
2023/02/11 08:59:49;;;;;;;24.60;13.20;;;3.90;68.60;;;;;;2576147;52;21029;-84
2023/02/11 09:02:16;;;;;;;26.20;12.70;;;3.90;68.90;;;;;;2573442;52;20921;-85
2023/02/11 09:04:42;;;;;;;21.58;11.88;;;3.90;68.60;;;;;;2574987;52;22128;-86
2023/02/11 09:07:09;;;;;;;23.85;12.05;;;4.00;68.70;;;;;;2576485;52;20917;-84
2023/02/11 09:09:35;;;;;;;23.87;13.05;;;4.00;68.90;;;;;;2577428;52;22099;-86
2023/02/11 09:12:02;;;;;;;23.70;12.27;;;4.00;68.80;;;;;;2577335;52;20937;-85
2023/02/11 09:14:28;;;;;;;19.70;11.23;;;4.00;68.70;;;;;;2576466;52;21485;-85
2023/02/11 09:16:54;;;;;;;26.52;13.38;;;4.10;68.80;;;;;;2575686;52;21080;-84
2023/02/11 09:19:22;;;;;;;22.77;11.80;;;4.10;69.20;;;;;;2575950;52;21331;-86
2023/02/11 09:21:48;;;;;;;20.40;11.85;;;4.10;69.30;;;;;;2576873;52;20921;-86
2023/02/11 09:24:14;;;;;;;20.17;10.63;;;4.20;69.40;;;;;;2575944;52;20941;-85
2023/02/11 09:26:42;;;;;;;20.52;11.18;;;4.20;69.60;;;;;;2577130;52;20948;-84
2023/02/11 09:29:09;;;;;;;18.52;10.70;;;4.30;69.70;;;;;;2575046;52;20993;-85
2023/02/11 09:31:35;;;;;;;25.37;13.23;;;4.40;69.90;;;;;;2569208;52;21036;-82
2023/02/11 09:34:03;;;;;;;24.05;13.05;;;4.40;70.00;;;;;;2573209;52;20971;-83
2023/02/11 09:36:31;;;;;;;24.73;13.62;;;4.40;70.10;;;;;;2335789;53;20957;-89
2023/02/11 09:38:59;;;;;;;24.65;13.95;;;4.50;70.30;;;;;;2577663;52;21727;-86
2023/02/11 09:43:08;;;;;;;27.83;15.02;;;4.60;70.80;;;;;;2576984;52;20976;-84
2023/02/11 09:45:35;;;;;;;30.55;15.95;;;4.70;71.20;;;;;;2578097;52;20968;-84
2023/02/11 09:48:13;;;;;;;30.02;15.43;;;4.90;72.00;;;;;;2571810;52;22083;-83
2023/02/11 09:50:41;;;;;;;26.95;15.82;;;5.00;72.80;;;;;;2576226;52;20990;-85
2023/02/11 09:53:19;;;;;;;27.95;14.25;;;5.20;73.40;;;;;;2574750;52;20933;-84
2023/02/11 09:55:46;;;;;;;24.00;13.65;;;5.40;74.00;;;;;;2574314;52;20941;-83
2023/02/11 09:58:39;;;;;;;28.42;16.12;;;5.60;74.50;;;;;;2574864;52;20931;-84
2023/02/11 10:01:29;;;;;;;28.85;17.05;;;5.80;75.00;;;;;;2574293;52;20941;-85
2023/02/11 10:05:01;;;;;;;28.75;16.77;;;6.00;75.20;;;;;;2575979;52;20984;-84
2023/02/11 10:07:41;;;;;;;28.23;15.93;;;6.30;76.10;;;;;;2573994;52;20936;-84
2023/02/11 10:10:18;;;;;;;30.77;17.08;;;6.60;76.30;;;;;;2330848;53;20898;-84
2023/02/11 10:13:21;;;;;;;30.77;17.08;;;6.80;76.50;;;;;;2572946;52;21462;-84
2023/02/11 10:17:43;;;;;;;27.48;16.87;;;7.10;76.10;;;;;;2330718;53;20989;-84
2023/02/11 10:20:32;;;;;;;26.70;15.88;;;7.50;75.20;;;;;;2571838;52;20933;-83
2023/02/11 10:23:23;;;;;;;25.52;15.43;;;7.70;76.20;;;;;;2572879;52;20977;-83
2023/02/11 10:25:53;;;;;;;25.90;15.77;;;8.00;76.40;;;;;;2573632;52;22044;-83
2023/02/11 10:28:20;;;;;;;23.38;14.73;;;8.10;76.20;;;;;;2331317;53;20949;-83
2023/02/11 10:31:01;;;;;;;23.52;15.93;;;8.30;75.40;;;;;;2330021;53;21032;-83
2023/02/11 10:34:13;;;;;;;28.25;17.08;;;8.40;74.20;;;;;;2570927;52;20921;-83
2023/02/11 10:36:40;;;;;;;29.35;17.00;;;8.50;72.70;;;;;;2574436;52;21097;-83
2023/02/11 10:39:15;;;;;;;45.33;25.20;;;8.60;74.20;;;;;;2572157;52;21472;-84
2023/02/11 10:41:45;;;;;;;40.28;23.67;;;8.70;74.30;;;;;;2574258;52;20940;-84
2023/02/11 10:44:36;;;;;;;28.12;17.85;;;8.80;74.70;;;;;;2566786;52;20972;-85
2023/02/11 10:47:08;;;;;;;30.65;18.92;;;8.90;73.60;;;;;;2573340;52;20969;-85
2023/02/11 10:49:39;;;;;;;29.20;18.77;;;9.00;74.10;;;;;;2542610;53;21004;-85
2023/02/11 10:52:24;;;;;;;28.95;17.33;;;9.10;73.60;;;;;;2572184;52;21210;-85
2023/02/11 10:56:02;;;;;;;26.73;14.98;;;9.20;72.80;;;;;;2573356;52;20985;-85
2023/02/11 10:58:31;;;;;;;24.40;15.10;;;9.20;72.50;;;;;;2572887;52;20976;-84
2023/02/11 11:00:58;;;;;;;24.00;14.57;;;9.30;73.00;;;;;;2330305;53;21044;-84
2023/02/11 11:03:26;;;;;;;27.35;17.08;;;9.40;73.30;;;;;;2572323;52;20992;-84
2023/02/11 11:05:58;;;;;;;26.23;16.83;;;9.50;73.20;;;;;;2329831;53;20980;-85
2023/02/11 11:08:46;;;;;;;25.80;15.38;;;9.50;72.90;;;;;;2573945;52;20913;-83
2023/02/11 11:11:17;;;;;;;29.48;19.87;;;9.60;72.60;;;;;;2333808;53;20969;-87
2023/02/11 11:14:02;;;;;;;29.40;18.48;;;9.70;73.40;;;;;;2332828;53;20949;-84
2023/02/11 11:16:32;;;;;;;24.45;15.45;;;9.80;73.10;;;;;;2573102;52;21319;-84
2023/02/11 11:20:12;;;;;;;30.12;18.77;;;9.80;73.80;;;;;;2564587;52;20957;-84
2023/02/11 11:22:39;;;;;;;25.67;17.00;;;10.00;71.00;;;;;;2574811;52;20993;-85
2023/02/11 11:25:08;;;;;;;34.88;21.05;;;10.10;73.20;;;;;;2575536;52;20929;-85
2023/02/11 11:27:35;;;;;;;26.58;17.70;;;10.20;73.50;;;;;;2575336;52;20933;-84
2023/02/11 11:30:02;;;;;;;27.92;17.75;;;10.30;73.50;;;;;;2575569;52;21198;-84
2023/02/11 11:32:31;;;;;;;27.48;17.27;;;10.40;73.30;;;;;;2575674;52;20999;-84
2023/02/11 11:35:07;;;;;;;24.60;16.35;;;10.60;73.60;;;;;;2575150;52;20956;-83
2023/02/11 11:37:36;;;;;;;21.67;14.13;;;10.70;73.10;;;;;;2332442;53;20984;-85
2023/02/11 11:41:55;;;;;;;27.17;16.85;;;10.80;73.20;;;;;;2574651;52;20937;-84
2023/02/11 11:44:30;;;;;;;26.02;14.93;;;10.90;70.80;;;;;;2575081;52;20932;-85
2023/02/11 11:51:29;;;;;;;24.65;15.88;;;11.00;72.50;;;;;;2575365;52;21413;-84
2023/02/11 11:53:59;;;;;;;22.20;14.02;;;11.10;70.80;;;;;;2578029;52;20928;-84
2023/02/11 11:56:33;;;;;;;24.25;15.63;;;11.30;72.10;;;;;;2578209;52;20960;-85
2023/02/11 11:59:00;;;;;;;26.48;17.37;;;11.30;71.30;;;;;;2580363;52;20941;-84
2023/02/11 12:01:56;;;;;;;25.67;15.95;;;11.40;71.40;;;;;;2579961;52;20986;-84
2023/02/11 12:07:09;;;;;;;23.08;15.48;;;11.40;70.10;;;;;;2337165;53;21052;-85
2023/02/11 12:13:25;;;;;;;23.25;15.25;;;11.40;70.50;;;;;;2338339;53;20933;-84
2023/02/11 12:16:48;;;;;;;20.83;12.32;;;11.60;69.10;;;;;;2582091;52;20937;-83
2023/02/11 12:19:43;;;;;;;19.33;11.93;;;11.60;70.20;;;;;;2580587;52;20944;-84
2023/02/11 12:23:00;;;;;;;21.70;12.82;;;11.60;70.00;;;;;;2579010;52;20973;-85
2023/02/11 12:25:28;;;;;;;19.75;12.50;;;11.60;70.80;;;;;;2335685;53;20965;-84
2023/02/11 12:29:46;;;;;;;21.65;13.57;;;11.60;70.80;;;;;;2578847;52;20937;-84
2023/02/11 12:39:17;;;;;;;18.35;11.98;;;11.70;69.60;;;;;;2335688;53;20937;-84
2023/02/11 12:43:15;;;;;;;17.58;9.80;;;11.70;69.00;;;;;;2578676;52;20949;-84
2023/02/11 12:46:01;;;;;;;20.37;12.40;;;11.70;69.60;;;;;;2335784;53;21221;-84
2023/02/11 12:49:58;;;;;;;24.25;13.18;;;11.60;68.50;;;;;;2335345;53;20973;-85
2023/02/11 12:52:55;;;;;;;20.70;11.98;;;11.60;69.00;;;;;;2335517;53;20941;-84
2023/02/11 12:55:26;;;;;;;21.58;12.77;;;11.50;68.30;;;;;;2335153;53;20981;-84
2023/02/11 12:57:53;;;;;;;21.67;13.82;;;11.50;69.20;;;;;;2578993;52;20997;-84
2023/02/11 13:00:30;;;;;;;21.83;13.15;;;11.50;69.40;;;;;;2577789;52;21057;-83
2023/02/11 13:03:06;;;;;;;19.83;13.07;;;11.40;68.80;;;;;;2334060;53;21045;-85
2023/02/11 13:05:50;;;;;;;19.08;11.77;;;11.40;69.20;;;;;;2311054;53;22148;-84
2023/02/11 13:08:24;;;;;;;21.98;13.05;;;11.40;68.90;;;;;;2578128;52;21044;-84
2023/02/11 13:10:56;;;;;;;18.87;11.85;;;11.40;69.50;;;;;;2577403;52;21382;-84
2023/02/11 13:13:38;;;;;;;21.48;13.23;;;11.40;69.50;;;;;;2577789;52;22013;-84
2023/02/11 13:18:03;;;;;;;21.92;13.48;;;11.50;69.40;;;;;;2334623;53;20972;-84
2023/02/11 13:20:56;;;;;;;15.85;10.45;;;11.50;69.60;;;;;;2577265;52;20948;-85
2023/02/11 13:23:34;;;;;;;18.10;10.02;;;11.50;69.30;;;;;;2576163;52;20945;-84
2023/02/11 13:26:18;;;;;;;14.13;8.82;;;11.60;70.30;;;;;;2576291;52;20965;-85
2023/02/11 13:31:55;;;;;;;13.98;8.50;;;11.60;69.50;;;;;;2333100;53;20994;-85
2023/02/11 13:34:57;;;;;;;12.02;6.53;;;11.70;69.60;;;;;;2576672;52;21032;-84
2023/02/11 13:37:46;;;;;;;12.48;7.25;;;11.70;69.80;;;;;;2575863;52;20980;-84
2023/02/11 13:40:23;;;;;;;12.50;7.30;;;11.70;70.20;;;;;;2575713;52;21502;-84
2023/02/11 13:42:59;;;;;;;10.10;6.30;;;11.70;70.00;;;;;;2575460;52;21947;-86
2023/02/11 13:45:44;;;;;;;12.40;7.32;;;11.70;70.00;;;;;;2575741;52;21228;-84
2023/02/11 13:48:31;;;;;;;11.32;6.90;;;11.80;69.60;;;;;;2332676;53;21114;-85
2023/02/11 13:50:58;;;;;;;13.82;8.35;;;11.80;69.60;;;;;;2332733;53;20944;-85
2023/02/11 13:53:25;;;;;;;14.13;7.30;;;11.80;70.60;;;;;;2575823;52;21239;-84
2023/02/11 13:56:02;;;;;;;11.68;6.93;;;11.80;70.70;;;;;;2332147;53;20988;-85
2023/02/11 13:58:47;;;;;;;12.13;7.03;;;11.90;71.20;;;;;;2575967;52;22068;-85
2023/02/11 14:13:28;;;;;;;8.10;5.07;;;12.30;72.40;;;;;;2574848;52;20913;-84